Time;durP1;ratioP1;P1;durP2;ratioP2;P2;SDS_P1;SDS_P2;PMS_P1;PMS_P2;Temp;Humidity;BMP_temperature;BMP_pressure;BME280_temperature;BME280_humidity;BME280_pressure;Samples;Min_cycle;Max_cycle;Signal;HPM_P1;HPM_P2
2021/08/17 00:00:18;;;;;;;17.52;8.73;;;;;;;;;;1083195;50;20034;-60
2021/08/17 00:01:19;;;;;;;16.77;8.70;;;;;;;;;;1083208;54;20049;-62
2021/08/17 00:02:22;;;;;;;16.05;9.20;;;;;;;;;;1083219;54;20023;-62
2021/08/17 00:03:23;;;;;;;16.42;8.38;;;;;;;;;;1083209;54;20049;-62
2021/08/17 00:04:27;;;;;;;15.85;8.45;;;;;;;;;;1083168;54;20031;-62
2021/08/17 00:05:31;;;;;;;17.38;9.07;;;;;;;;;;1083209;54;20027;-61
2021/08/17 00:06:32;;;;;;;16.73;8.60;;;;;;;;;;1083125;54;20121;-62
2021/08/17 00:07:37;;;;;;;15.35;8.40;;;;;;;;;;1083248;54;20036;-62
2021/08/17 00:08:38;;;;;;;15.13;8.18;;;;;;;;;;1083125;54;20076;-62
2021/08/17 00:09:41;;;;;;;16.67;9.10;;;;;;;;;;1083198;54;20537;-62
2021/08/17 00:10:45;;;;;;;14.90;8.27;;;;;;;;;;1083227;54;20142;-62
2021/08/17 00:11:49;;;;;;;17.13;9.10;;;;;;;;;;1083206;54;20031;-61
2021/08/17 00:12:50;;;;;;;14.05;8.07;;;;;;;;;;1083157;54;20026;-61
2021/08/17 00:13:54;;;;;;;17.27;8.70;;;;;;;;;;1083209;54;20031;-62
2021/08/17 00:14:55;;;;;;;17.17;8.95;;;;;;;;;;1083142;54;20117;-62
2021/08/17 00:15:58;;;;;;;16.98;8.70;;;;;;;;;;1083242;54;20034;-62
2021/08/17 00:16:59;;;;;;;16.35;9.10;;;;;;;;;;1083202;54;20528;-60
2021/08/17 00:18:03;;;;;;;15.65;8.68;;;;;;;;;;1083163;54;20026;-61
2021/08/17 00:19:07;;;;;;;18.80;9.30;;;;;;;;;;1083192;54;20035;-62
2021/08/17 00:20:10;;;;;;;16.48;8.32;;;;;;;;;;1083186;54;20034;-62
2021/08/17 00:21:15;;;;;;;16.70;8.55;;;;;;;;;;1083272;54;20056;-62
2021/08/17 00:22:22;;;;;;;16.73;9.15;;;;;;;;;;1083195;54;20544;-62
2021/08/17 00:23:25;;;;;;;15.38;8.45;;;;;;;;;;1083196;54;20041;-61
2021/08/17 00:24:36;;;;;;;14.70;7.88;;;;;;;;;;1083203;54;20038;-60
2021/08/17 00:25:44;;;;;;;17.75;8.43;;;;;;;;;;1082941;47;20158;-61
2021/08/17 00:26:48;;;;;;;13.90;8.35;;;;;;;;;;1082895;54;20022;-61
2021/08/17 00:27:52;;;;;;;17.50;8.98;;;;;;;;;;1083150;54;20540;-60
2021/08/17 00:28:53;;;;;;;15.63;9.43;;;;;;;;;;1083563;39;20197;-61
2021/08/17 00:29:56;;;;;;;16.05;8.80;;;;;;;;;;1083171;54;20038;-61
2021/08/17 00:31:00;;;;;;;16.30;9.35;;;;;;;;;;1083143;54;20118;-61
2021/08/17 00:32:01;;;;;;;16.85;8.98;;;;;;;;;;1083185;54;20061;-61
2021/08/17 00:33:05;;;;;;;18.00;8.68;;;;;;;;;;1083172;54;20548;-62
2021/08/17 00:34:06;;;;;;;16.52;8.38;;;;;;;;;;1083140;54;20050;-61
2021/08/17 00:35:11;;;;;;;17.88;8.82;;;;;;;;;;1082878;54;20560;-61
2021/08/17 00:36:12;;;;;;;16.40;8.48;;;;;;;;;;1082875;54;20026;-60
2021/08/17 00:37:15;;;;;;;16.80;9.27;;;;;;;;;;1083610;39;20429;-61
2021/08/17 00:38:16;;;;;;;17.90;8.77;;;;;;;;;;1083114;54;20038;-61
2021/08/17 00:39:20;;;;;;;17.42;8.95;;;;;;;;;;1083181;54;20026;-62
2021/08/17 00:40:21;;;;;;;16.08;8.57;;;;;;;;;;1083147;54;20075;-61
2021/08/17 00:41:25;;;;;;;16.90;9.43;;;;;;;;;;1083173;54;20576;-61
2021/08/17 00:42:30;;;;;;;18.92;9.27;;;;;;;;;;1083145;54;20038;-61
2021/08/17 00:43:34;;;;;;;17.40;9.10;;;;;;;;;;1083188;54;20030;-60
2021/08/17 00:44:35;;;;;;;14.77;8.90;;;;;;;;;;1083204;54;20049;-62
2021/08/17 00:45:39;;;;;;;17.60;8.52;;;;;;;;;;1083173;54;20126;-60
2021/08/17 00:46:40;;;;;;;15.38;8.57;;;;;;;;;;1082942;54;20114;-61
2021/08/17 00:47:44;;;;;;;17.75;9.35;;;;;;;;;;1083151;54;20038;-61
2021/08/17 00:48:45;;;;;;;18.65;8.75;;;;;;;;;;1083133;54;20038;-61
2021/08/17 00:49:48;;;;;;;18.83;9.40;;;;;;;;;;1083213;54;20031;-60
2021/08/17 00:50:49;;;;;;;18.88;9.20;;;;;;;;;;1083127;54;20141;-61
2021/08/17 00:51:54;;;;;;;18.52;9.57;;;;;;;;;;1083155;54;20082;-62
2021/08/17 00:52:56;;;;;;;17.02;8.73;;;;;;;;;;1083129;54;20053;-61
2021/08/17 00:54:00;;;;;;;19.73;9.98;;;;;;;;;;1083144;54;20031;-61
2021/08/17 00:55:01;;;;;;;19.05;9.63;;;;;;;;;;1083126;54;20027;-61
2021/08/17 00:56:05;;;;;;;18.52;9.35;;;;;;;;;;1083571;39;20440;-61
2021/08/17 00:57:06;;;;;;;17.33;8.70;;;;;;;;;;1083154;54;20038;-60
2021/08/17 00:58:12;;;;;;;16.80;9.00;;;;;;;;;;1083514;39;20428;-61
2021/08/17 00:59:13;;;;;;;16.35;8.35;;;;;;;;;;1083166;54;20532;-60
2021/08/17 01:00:17;;;;;;;15.25;8.43;;;;;;;;;;1083120;54;20026;-60
2021/08/17 01:01:20;;;;;;;16.27;9.07;;;;;;;;;;1083143;54;20655;-61
2021/08/17 01:02:24;;;;;;;16.80;8.43;;;;;;;;;;1083139;54;20019;-61
2021/08/17 01:03:27;;;;;;;17.95;9.40;;;;;;;;;;1083546;39;20405;-60
2021/08/17 01:04:30;;;;;;;16.58;8.35;;;;;;;;;;1083099;54;20022;-61
2021/08/17 01:05:31;;;;;;;16.75;8.63;;;;;;;;;;1083083;54;20121;-61
2021/08/17 01:06:35;;;;;;;18.00;9.18;;;;;;;;;;1083060;54;20034;-62
2021/08/17 01:07:39;;;;;;;15.45;8.25;;;;;;;;;;1083116;54;20015;-61
2021/08/17 01:08:40;;;;;;;15.93;8.38;;;;;;;;;;1083149;54;20057;-61
2021/08/17 01:09:44;;;;;;;17.95;8.45;;;;;;;;;;1083137;54;20019;-60
2021/08/17 01:10:45;;;;;;;18.83;9.15;;;;;;;;;;1083090;54;20057;-61
2021/08/17 01:11:49;;;;;;;15.15;8.68;;;;;;;;;;1083187;54;20031;-62
2021/08/17 01:12:51;;;;;;;15.52;8.20;;;;;;;;;;1083136;54;20034;-61
2021/08/17 01:13:57;;;;;;;15.75;8.13;;;;;;;;;;1083556;39;20444;-62
2021/08/17 01:15:14;;;;;;;16.02;8.07;;;;;;;;;;1083509;39;20437;-62
2021/08/17 01:16:16;;;;;;;15.07;8.38;;;;;;;;;;1083136;54;20018;-62
2021/08/17 01:17:20;;;;;;;16.38;8.80;;;;;;;;;;1083132;54;20029;-62
2021/08/17 01:18:23;;;;;;;18.17;8.85;;;;;;;;;;1083053;54;20041;-62
2021/08/17 01:19:24;;;;;;;19.98;9.30;;;;;;;;;;1083060;54;20063;-62
2021/08/17 01:20:28;;;;;;;15.45;7.50;;;;;;;;;;1083109;54;20033;-62
2021/08/17 01:21:31;;;;;;;13.68;6.88;;;;;;;;;;1083233;54;20015;-62
2021/08/17 01:22:34;;;;;;;12.63;6.13;;;;;;;;;;1083196;54;20030;-62
2021/08/17 01:23:35;;;;;;;10.82;5.63;;;;;;;;;;1083152;54;20110;-62
2021/08/17 01:24:39;;;;;;;11.57;5.70;;;;;;;;;;1083135;54;20022;-62
2021/08/17 01:25:42;;;;;;;10.88;5.65;;;;;;;;;;1083101;54;20050;-62
2021/08/17 01:26:47;;;;;;;9.25;5.47;;;;;;;;;;1083053;54;20031;-61
2021/08/17 01:27:48;;;;;;;8.98;5.43;;;;;;;;;;1083041;54;20030;-62
2021/08/17 01:28:51;;;;;;;9.77;4.93;;;;;;;;;;1083089;54;20038;-62
2021/08/17 01:29:55;;;;;;;10.50;5.28;;;;;;;;;;1083123;54;20022;-62
2021/08/17 01:31:00;;;;;;;9.43;5.00;;;;;;;;;;1083126;54;20038;-62
2021/08/17 01:32:04;;;;;;;10.80;5.45;;;;;;;;;;1083120;54;20150;-62
2021/08/17 01:33:05;;;;;;;10.98;5.88;;;;;;;;;;1083145;54;20061;-62
2021/08/17 01:34:08;;;;;;;9.13;5.10;;;;;;;;;;1083085;54;20027;-62
2021/08/17 01:35:11;;;;;;;9.27;5.40;;;;;;;;;;1083095;54;20049;-62
2021/08/17 01:36:14;;;;;;;10.90;5.70;;;;;;;;;;1083109;54;20035;-62
2021/08/17 01:37:15;;;;;;;10.52;5.28;;;;;;;;;;1083062;54;20134;-61
2021/08/17 01:38:19;;;;;;;11.05;5.75;;;;;;;;;;1083031;54;20031;-61
2021/08/17 01:39:22;;;;;;;12.43;5.13;;;;;;;;;;1083078;54;20049;-62
2021/08/17 01:40:23;;;;;;;9.75;5.25;;;;;;;;;;1083078;54;20092;-62
2021/08/17 01:41:30;;;;;;;11.20;5.40;;;;;;;;;;1083527;39;20425;-62
2021/08/17 01:42:31;;;;;;;10.48;5.80;;;;;;;;;;1083078;54;20065;-62
2021/08/17 01:43:34;;;;;;;10.02;5.05;;;;;;;;;;1083074;54;20122;-62
2021/08/17 01:44:38;;;;;;;10.30;5.28;;;;;;;;;;1083064;54;20049;-62
2021/08/17 01:45:39;;;;;;;10.60;5.10;;;;;;;;;;1083062;54;20142;-62
2021/08/17 01:46:44;;;;;;;11.20;5.18;;;;;;;;;;1082963;54;20031;-62
2021/08/17 01:47:47;;;;;;;8.43;4.47;;;;;;;;;;1083098;54;20057;-62
2021/08/17 01:48:50;;;;;;;11.77;5.40;;;;;;;;;;1083027;54;20051;-62
2021/08/17 01:49:51;;;;;;;9.63;4.95;;;;;;;;;;1083057;54;20022;-62
2021/08/17 01:50:55;;;;;;;11.73;5.18;;;;;;;;;;1083044;47;20034;-62
2021/08/17 01:51:56;;;;;;;12.50;5.63;;;;;;;;;;1083118;54;20038;-62
2021/08/17 01:52:59;;;;;;;9.38;5.07;;;;;;;;;;1083064;54;20034;-62
2021/08/17 01:54:01;;;;;;;10.73;5.35;;;;;;;;;;1083058;54;20053;-62
2021/08/17 01:55:07;;;;;;;9.07;5.03;;;;;;;;;;1083059;54;20031;-62
2021/08/17 01:56:10;;;;;;;9.73;5.05;;;;;;;;;;1083051;54;20027;-62
2021/08/17 01:57:16;;;;;;;11.38;5.28;;;;;;;;;;1083056;54;20031;-62
2021/08/17 01:58:17;;;;;;;11.52;5.53;;;;;;;;;;1083000;54;20551;-61
2021/08/17 01:59:21;;;;;;;10.35;5.13;;;;;;;;;;1083341;54;20030;-62
2021/08/17 02:00:22;;;;;;;12.15;5.55;;;;;;;;;;1083375;54;20026;-62
2021/08/17 02:01:25;;;;;;;9.57;4.43;;;;;;;;;;1083370;54;20037;-62
2021/08/17 02:02:26;;;;;;;8.00;3.97;;;;;;;;;;1083383;54;20121;-62
2021/08/17 02:03:30;;;;;;;9.52;4.28;;;;;;;;;;1083389;54;20026;-62
2021/08/17 02:04:31;;;;;;;9.23;4.40;;;;;;;;;;1083358;54;20027;-62
2021/08/17 02:05:34;;;;;;;8.27;4.63;;;;;;;;;;1083820;39;20421;-62
2021/08/17 02:06:38;;;;;;;6.72;3.95;;;;;;;;;;1083402;54;20034;-62
2021/08/17 02:07:39;;;;;;;7.15;3.80;;;;;;;;;;1083349;54;20063;-62
2021/08/17 02:08:43;;;;;;;7.68;3.88;;;;;;;;;;1083794;39;20456;-62
2021/08/17 02:09:44;;;;;;;7.72;3.85;;;;;;;;;;1083345;54;20049;-61
2021/08/17 02:10:47;;;;;;;7.00;3.60;;;;;;;;;;1083348;54;20030;-62
2021/08/17 02:11:48;;;;;;;8.02;3.53;;;;;;;;;;1083371;54;20022;-62
2021/08/17 02:12:54;;;;;;;6.20;3.00;;;;;;;;;;1083383;54;20026;-62
2021/08/17 02:13:55;;;;;;;7.95;3.63;;;;;;;;;;1083373;54;20030;-62
2021/08/17 02:14:59;;;;;;;5.03;2.67;;;;;;;;;;1083328;54;20030;-62
2021/08/17 02:16:03;;;;;;;5.25;3.03;;;;;;;;;;1083361;54;20125;-62
2021/08/17 02:17:04;;;;;;;6.70;2.90;;;;;;;;;;1083351;54;20030;-62
2021/08/17 02:18:07;;;;;;;6.03;3.33;;;;;;;;;;1083321;54;20018;-62
2021/08/17 02:19:08;;;;;;;5.25;3.33;;;;;;;;;;1083307;54;20545;-61
2021/08/17 02:20:13;;;;;;;6.07;2.67;;;;;;;;;;1083365;54;20049;-62
2021/08/17 02:21:14;;;;;;;8.23;3.05;;;;;;;;;;1083360;54;20034;-62
2021/08/17 02:22:18;;;;;;;5.35;2.97;;;;;;;;;;1083373;54;20022;-62
2021/08/17 02:23:19;;;;;;;4.70;2.70;;;;;;;;;;1083333;54;20046;-62
2021/08/17 02:24:22;;;;;;;5.03;2.38;;;;;;;;;;1083330;54;20027;-62
2021/08/17 02:25:26;;;;;;;5.80;2.72;;;;;;;;;;1083368;54;20141;-62
2021/08/17 02:26:27;;;;;;;4.72;2.67;;;;;;;;;;1084070;31;20533;-62
2021/08/17 02:27:35;;;;;;;5.00;2.55;;;;;;;;;;1083353;54;20069;-62
2021/08/17 02:28:41;;;;;;;4.72;2.10;;;;;;;;;;1083326;54;20041;-62
2021/08/17 02:29:42;;;;;;;4.88;2.55;;;;;;;;;;1083330;54;20058;-62
2021/08/17 02:30:46;;;;;;;5.53;2.50;;;;;;;;;;1083319;54;20026;-62
2021/08/17 02:31:47;;;;;;;4.57;2.60;;;;;;;;;;1083321;54;20121;-61
2021/08/17 02:32:50;;;;;;;4.88;2.30;;;;;;;;;;1083325;54;20030;-62
2021/08/17 02:33:51;;;;;;;4.63;2.40;;;;;;;;;;1084096;31;20501;-62
2021/08/17 02:34:56;;;;;;;4.65;2.20;;;;;;;;;;1083344;54;20055;-62
2021/08/17 02:35:59;;;;;;;5.20;2.58;;;;;;;;;;1083333;54;20540;-62
2021/08/17 02:37:00;;;;;;;5.93;2.75;;;;;;;;;;1083375;54;20142;-62
2021/08/17 02:38:05;;;;;;;4.03;2.15;;;;;;;;;;1083746;39;20125;-61
2021/08/17 02:39:06;;;;;;;5.25;2.30;;;;;;;;;;1083342;54;20068;-61
2021/08/17 02:40:11;;;;;;;4.25;1.95;;;;;;;;;;1083347;54;20122;-62
2021/08/17 02:41:15;;;;;;;5.45;2.33;;;;;;;;;;1083839;39;20429;-62
2021/08/17 02:42:16;;;;;;;5.68;2.38;;;;;;;;;;1083313;54;20556;-62
2021/08/17 02:43:24;;;;;;;4.88;2.47;;;;;;;;;;1083321;54;20027;-61
2021/08/17 02:44:27;;;;;;;4.35;2.25;;;;;;;;;;1083339;54;20049;-62
2021/08/17 02:45:31;;;;;;;5.97;2.33;;;;;;;;;;1083387;54;20054;-62
2021/08/17 02:46:32;;;;;;;6.07;2.95;;;;;;;;;;1083782;39;20509;-62
2021/08/17 02:47:36;;;;;;;4.70;2.60;;;;;;;;;;1083268;54;20556;-62
2021/08/17 02:48:39;;;;;;;4.78;2.38;;;;;;;;;;1083350;54;20049;-62
2021/08/17 02:49:40;;;;;;;5.47;2.30;;;;;;;;;;1083336;54;20545;-61
2021/08/17 02:50:44;;;;;;;5.25;2.70;;;;;;;;;;1083333;54;20030;-61
2021/08/17 02:51:47;;;;;;;4.97;2.45;;;;;;;;;;1083290;54;20596;-62
2021/08/17 02:52:48;;;;;;;5.50;2.33;;;;;;;;;;1083336;54;20109;-61
2021/08/17 02:53:53;;;;;;;5.32;2.50;;;;;;;;;;1083340;54;20033;-62
2021/08/17 02:54:54;;;;;;;5.22;2.58;;;;;;;;;;1083324;54;20149;-62
2021/08/17 02:55:57;;;;;;;5.43;2.50;;;;;;;;;;1083770;39;20425;-62
2021/08/17 02:56:59;;;;;;;5.55;2.50;;;;;;;;;;1083776;39;20466;-62
2021/08/17 02:58:05;;;;;;;4.07;2.45;;;;;;;;;;1083261;54;20069;-61
2021/08/17 02:59:06;;;;;;;4.18;2.00;;;;;;;;;;1083353;54;20045;-62
2021/08/17 03:00:14;;;;;;;4.65;2.28;;;;;;;;;;1083324;54;20022;-61
2021/08/17 03:01:15;;;;;;;4.35;2.25;;;;;;;;;;1083369;54;20015;-62
2021/08/17 03:02:19;;;;;;;5.30;2.30;;;;;;;;;;1083295;54;20030;-62
2021/08/17 03:03:20;;;;;;;4.57;2.30;;;;;;;;;;1083307;54;20126;-62
2021/08/17 03:04:23;;;;;;;4.90;2.58;;;;;;;;;;1083308;54;20552;-62
2021/08/17 03:05:25;;;;;;;5.40;2.47;;;;;;;;;;1083317;54;20107;-61
2021/08/17 03:06:28;;;;;;;4.65;2.13;;;;;;;;;;1083297;54;20091;-62
2021/08/17 03:07:29;;;;;;;6.18;2.78;;;;;;;;;;1083280;54;20023;-61
2021/08/17 03:08:33;;;;;;;4.57;2.28;;;;;;;;;;1083261;54;20031;-62
2021/08/17 03:09:34;;;;;;;6.40;2.15;;;;;;;;;;1083167;54;20030;-62
2021/08/17 03:10:40;;;;;;;3.75;2.28;;;;;;;;;;1083321;54;20027;-61
2021/08/17 03:11:43;;;;;;;4.38;2.17;;;;;;;;;;1083290;54;20034;-61
2021/08/17 03:12:45;;;;;;;4.72;2.22;;;;;;;;;;1083324;54;20057;-61
2021/08/17 03:13:48;;;;;;;4.03;2.05;;;;;;;;;;1083017;47;20033;-62
2021/08/17 03:14:49;;;;;;;4.25;1.90;;;;;;;;;;1083061;54;20111;-61
2021/08/17 03:15:55;;;;;;;5.28;2.38;;;;;;;;;;1083330;54;20022;-61
2021/08/17 03:16:56;;;;;;;4.75;2.50;;;;;;;;;;1083300;54;20023;-61
2021/08/17 03:18:00;;;;;;;3.85;2.10;;;;;;;;;;1083235;54;20038;-61
2021/08/17 03:19:02;;;;;;;4.45;2.00;;;;;;;;;;1083278;54;20045;-61
2021/08/17 03:20:06;;;;;;;5.78;2.60;;;;;;;;;;1083274;54;20030;-61
2021/08/17 03:21:07;;;;;;;5.57;2.40;;;;;;;;;;1083325;54;20061;-61
2021/08/17 03:22:10;;;;;;;6.28;2.08;;;;;;;;;;1083284;54;20030;-61
2021/08/17 03:23:14;;;;;;;7.07;2.40;;;;;;;;;;1083284;54;20061;-61
2021/08/17 03:24:18;;;;;;;4.88;2.13;;;;;;;;;;1083289;54;20022;-62
2021/08/17 03:25:19;;;;;;;6.18;2.25;;;;;;;;;;1083318;54;20018;-61
2021/08/17 03:26:23;;;;;;;4.30;2.20;;;;;;;;;;1084016;31;20543;-61
2021/08/17 03:27:24;;;;;;;4.13;2.00;;;;;;;;;;1083257;54;20022;-61
2021/08/17 03:28:27;;;;;;;5.10;2.10;;;;;;;;;;1083274;54;20029;-61
2021/08/17 03:29:28;;;;;;;3.72;1.83;;;;;;;;;;1083336;54;20018;-61
2021/08/17 03:30:33;;;;;;;4.78;2.10;;;;;;;;;;1083269;54;20019;-60
2021/08/17 03:31:36;;;;;;;4.38;2.10;;;;;;;;;;1083281;54;20022;-61
2021/08/17 03:32:40;;;;;;;3.17;1.58;;;;;;;;;;1083277;54;20064;-61
2021/08/17 03:33:44;;;;;;;4.72;2.20;;;;;;;;;;1083310;54;20027;-61
2021/08/17 03:34:45;;;;;;;3.90;1.80;;;;;;;;;;1083281;54;20057;-61
2021/08/17 03:35:48;;;;;;;3.88;2.05;;;;;;;;;;1083286;54;20551;-60
2021/08/17 03:36:52;;;;;;;4.03;1.80;;;;;;;;;;1083235;54;20113;-61
2021/08/17 03:37:53;;;;;;;5.25;1.85;;;;;;;;;;1083266;54;20559;-61
2021/08/17 03:38:56;;;;;;;4.28;1.80;;;;;;;;;;1083269;54;20033;-62
2021/08/17 03:39:57;;;;;;;3.65;1.67;;;;;;;;;;1083308;54;20030;-61
2021/08/17 03:41:02;;;;;;;3.40;1.80;;;;;;;;;;1083762;39;20428;-60
2021/08/17 03:42:03;;;;;;;5.25;1.83;;;;;;;;;;1082936;54;20134;-61
2021/08/17 03:43:07;;;;;;;6.25;2.13;;;;;;;;;;1082973;54;20038;-61
2021/08/17 03:44:08;;;;;;;3.47;1.90;;;;;;;;;;1083228;54;20029;-62
2021/08/17 03:45:15;;;;;;;5.28;2.08;;;;;;;;;;1083651;39;20113;-61
2021/08/17 03:46:16;;;;;;;3.42;1.92;;;;;;;;;;1083244;54;20544;-61
2021/08/17 03:47:22;;;;;;;4.38;2.25;;;;;;;;;;1083217;54;20031;-61
2021/08/17 03:48:23;;;;;;;4.57;2.17;;;;;;;;;;1083224;54;20122;-61
2021/08/17 03:49:26;;;;;;;5.53;2.05;;;;;;;;;;1083233;54;20031;-61
2021/08/17 03:50:27;;;;;;;4.65;2.00;;;;;;;;;;1083226;54;20113;-60
2021/08/17 03:51:31;;;;;;;4.38;1.90;;;;;;;;;;1083228;54;20026;-61
2021/08/17 03:52:33;;;;;;;5.68;2.03;;;;;;;;;;1083289;54;20049;-61
2021/08/17 03:53:36;;;;;;;4.53;2.30;;;;;;;;;;1083310;54;20051;-61
2021/08/17 03:54:37;;;;;;;4.47;2.00;;;;;;;;;;1082892;54;20557;-62
2021/08/17 03:55:41;;;;;;;4.20;2.20;;;;;;;;;;1082973;54;20038;-61
2021/08/17 03:56:42;;;;;;;8.73;2.60;;;;;;;;;;1083724;39;20528;-61
2021/08/17 03:57:46;;;;;;;7.53;2.60;;;;;;;;;;1083243;54;20022;-61
2021/08/17 03:58:46;;;;;;;5.75;2.40;;;;;;;;;;1083188;54;20057;-60
2021/08/17 03:59:50;;;;;;;5.57;2.60;;;;;;;;;;1083251;54;20034;-61
2021/08/17 04:00:54;;;;;;;5.75;2.60;;;;;;;;;;1083216;54;20529;-60
2021/08/17 04:01:55;;;;;;;5.47;2.30;;;;;;;;;;1083254;54;20049;-61
2021/08/17 04:03:02;;;;;;;4.85;2.55;;;;;;;;;;1083183;54;20027;-60
2021/08/17 04:04:03;;;;;;;5.55;2.50;;;;;;;;;;1083259;54;20023;-61
2021/08/17 04:05:08;;;;;;;8.23;2.65;;;;;;;;;;1083233;54;20049;-61
2021/08/17 04:06:12;;;;;;;5.57;2.75;;;;;;;;;;1083643;39;20413;-61
2021/08/17 04:07:12;;;;;;;5.88;2.67;;;;;;;;;;1083225;54;20114;-61
2021/08/17 04:08:16;;;;;;;5.40;2.53;;;;;;;;;;1083162;54;20548;-60
2021/08/17 04:09:17;;;;;;;5.82;2.60;;;;;;;;;;1083204;54;20038;-61
2021/08/17 04:10:21;;;;;;;5.38;2.60;;;;;;;;;;1083666;39;20405;-60
2021/08/17 04:11:21;;;;;;;6.63;3.00;;;;;;;;;;1083216;54;20039;-60
2021/08/17 04:12:25;;;;;;;8.63;3.15;;;;;;;;;;1083244;54;20023;-60
2021/08/17 04:13:29;;;;;;;5.47;2.60;;;;;;;;;;1083635;39;20436;-61
2021/08/17 04:14:30;;;;;;;6.22;2.80;;;;;;;;;;1083212;54;20121;-61
2021/08/17 04:15:33;;;;;;;5.70;3.00;;;;;;;;;;1082887;54;20030;-61
2021/08/17 04:16:34;;;;;;;4.63;2.50;;;;;;;;;;1082948;54;20031;-61
2021/08/17 04:17:38;;;;;;;6.05;2.90;;;;;;;;;;1083260;54;20045;-60
2021/08/17 04:18:41;;;;;;;6.68;3.00;;;;;;;;;;1083178;54;20030;-61
2021/08/17 04:19:45;;;;;;;5.97;2.88;;;;;;;;;;1083184;54;20551;-61
2021/08/17 04:20:50;;;;;;;5.35;2.78;;;;;;;;;;1083640;39;20429;-61
2021/08/17 04:21:51;;;;;;;6.25;2.83;;;;;;;;;;1082978;54;20030;-61
2021/08/17 04:22:54;;;;;;;6.80;2.60;;;;;;;;;;1083255;54;20023;-60
2021/08/17 04:23:57;;;;;;;5.63;2.90;;;;;;;;;;1083267;54;20049;-61
2021/08/17 04:25:00;;;;;;;6.53;2.90;;;;;;;;;;1083197;54;20617;-61
2021/08/17 04:26:01;;;;;;;6.47;2.90;;;;;;;;;;1083200;54;20034;-61
2021/08/17 04:27:05;;;;;;;6.57;3.03;;;;;;;;;;1083202;54;20030;-61
2021/08/17 04:28:06;;;;;;;6.18;2.88;;;;;;;;;;1083099;54;20061;-61
2021/08/17 04:29:10;;;;;;;4.30;2.67;;;;;;;;;;1083189;54;20022;-61
2021/08/17 04:30:12;;;;;;;7.88;3.17;;;;;;;;;;1083149;54;20547;-61
2021/08/17 04:31:16;;;;;;;8.48;2.70;;;;;;;;;;1083211;54;20118;-61
2021/08/17 04:32:17;;;;;;;9.40;2.90;;;;;;;;;;1083215;54;20049;-60
2021/08/17 04:33:21;;;;;;;5.78;2.70;;;;;;;;;;1083200;54;20085;-61
2021/08/17 04:34:24;;;;;;;8.05;2.92;;;;;;;;;;1083191;54;20026;-61
2021/08/17 04:35:28;;;;;;;5.65;2.72;;;;;;;;;;1083188;54;20053;-61
2021/08/17 04:36:32;;;;;;;5.88;2.85;;;;;;;;;;1083198;54;20050;-61
2021/08/17 04:37:33;;;;;;;6.68;3.28;;;;;;;;;;1083189;54;20026;-61
2021/08/17 04:38:36;;;;;;;7.22;3.33;;;;;;;;;;1083162;54;20557;-60
2021/08/17 04:39:37;;;;;;;7.22;2.92;;;;;;;;;;1083197;54;20038;-60
2021/08/17 04:40:41;;;;;;;4.88;3.03;;;;;;;;;;1083157;54;20030;-61
2021/08/17 04:41:42;;;;;;;5.68;3.00;;;;;;;;;;1083139;54;20065;-62
2021/08/17 04:42:46;;;;;;;6.78;3.13;;;;;;;;;;1083148;54;20037;-61
2021/08/17 04:43:47;;;;;;;5.93;2.80;;;;;;;;;;1083304;54;20026;-60
2021/08/17 04:44:50;;;;;;;6.18;3.15;;;;;;;;;;1083308;54;20037;-60
2021/08/17 04:45:52;;;;;;;7.00;3.03;;;;;;;;;;1083352;54;20038;-60
2021/08/17 04:46:56;;;;;;;6.63;3.33;;;;;;;;;;1083495;54;20037;-60
2021/08/17 04:47:57;;;;;;;6.60;3.03;;;;;;;;;;1083731;39;20433;-60
2021/08/17 04:49:00;;;;;;;6.15;3.33;;;;;;;;;;1083328;54;20034;-60
2021/08/17 04:50:07;;;;;;;6.15;3.03;;;;;;;;;;1083257;54;20030;-60
2021/08/17 04:51:09;;;;;;;5.57;2.97;;;;;;;;;;1083278;54;20604;-60
2021/08/17 04:52:13;;;;;;;7.90;3.13;;;;;;;;;;1083277;54;20026;-60
2021/08/17 04:53:14;;;;;;;8.35;3.15;;;;;;;;;;1083314;54;20057;-60
2021/08/17 04:54:17;;;;;;;7.40;3.60;;;;;;;;;;1083239;54;20027;-60
2021/08/17 04:55:21;;;;;;;5.22;2.97;;;;;;;;;;1083187;54;20057;-60
2021/08/17 04:56:22;;;;;;;5.97;3.13;;;;;;;;;;1083241;54;20121;-60
2021/08/17 04:57:26;;;;;;;7.35;3.20;;;;;;;;;;1083245;54;20545;-60
2021/08/17 04:58:28;;;;;;;5.88;3.22;;;;;;;;;;1083267;54;20045;-60
2021/08/17 04:59:31;;;;;;;6.93;3.42;;;;;;;;;;1083311;54;20031;-60
2021/08/17 05:00:35;;;;;;;8.93;3.10;;;;;;;;;;1083365;54;20022;-60
2021/08/17 05:01:36;;;;;;;5.85;3.28;;;;;;;;;;1083409;54;20613;-60
2021/08/17 05:02:40;;;;;;;7.10;3.42;;;;;;;;;;1083234;54;20026;-61
2021/08/17 05:03:41;;;;;;;7.30;3.08;;;;;;;;;;1083210;54;20034;-61
2021/08/17 05:04:44;;;;;;;7.00;3.22;;;;;;;;;;1083121;54;20030;-61
2021/08/17 05:05:48;;;;;;;6.30;3.33;;;;;;;;;;1083114;54;20057;-62
2021/08/17 05:06:53;;;;;;;6.47;2.95;;;;;;;;;;1083137;54;20029;-62
2021/08/17 05:07:54;;;;;;;5.65;2.90;;;;;;;;;;1083070;54;20033;-61
2021/08/17 05:08:57;;;;;;;5.88;3.25;;;;;;;;;;1083095;54;20118;-62
2021/08/17 05:09:59;;;;;;;5.82;2.95;;;;;;;;;;1083130;54;20041;-60
2021/08/17 05:11:02;;;;;;;6.25;3.35;;;;;;;;;;1083218;39;20448;-61
2021/08/17 05:12:04;;;;;;;8.57;3.42;;;;;;;;;;1082836;54;20042;-62
2021/08/17 05:13:08;;;;;;;9.15;3.40;;;;;;;;;;1083563;39;20420;-60
2021/08/17 05:14:12;;;;;;;6.03;3.15;;;;;;;;;;1083597;39;20461;-61
2021/08/17 05:15:14;;;;;;;7.57;2.80;;;;;;;;;;1083117;54;20014;-62
2021/08/17 05:16:17;;;;;;;7.93;3.65;;;;;;;;;;1083328;54;20034;-58
2021/08/17 05:17:18;;;;;;;7.32;2.92;;;;;;;;;;1083112;54;20039;-59
2021/08/17 05:18:22;;;;;;;5.93;2.95;;;;;;;;;;1083088;54;20018;-59
2021/08/17 05:19:23;;;;;;;6.35;2.92;;;;;;;;;;1083870;31;20515;-58
2021/08/17 05:20:27;;;;;;;6.07;3.10;;;;;;;;;;1083124;54;20018;-58
2021/08/17 05:21:30;;;;;;;6.28;2.70;;;;;;;;;;1083165;54;20022;-59
2021/08/17 05:22:34;;;;;;;6.47;3.38;;;;;;;;;;1083093;54;20019;-58
2021/08/17 05:23:37;;;;;;;6.90;3.13;;;;;;;;;;1083884;31;20457;-58
2021/08/17 05:24:38;;;;;;;5.45;2.83;;;;;;;;;;1083111;54;20536;-59
2021/08/17 05:25:42;;;;;;;6.75;2.70;;;;;;;;;;1083123;54;20018;-59
2021/08/17 05:26:43;;;;;;;5.63;2.70;;;;;;;;;;1083093;54;20049;-59
2021/08/17 05:27:47;;;;;;;6.90;2.97;;;;;;;;;;1083039;54;20548;-59
2021/08/17 05:28:48;;;;;;;6.03;3.10;;;;;;;;;;1083094;54;20034;-59
2021/08/17 05:29:53;;;;;;;6.43;2.50;;;;;;;;;;1083098;54;20037;-59
2021/08/17 05:30:54;;;;;;;6.57;3.03;;;;;;;;;;1083044;54;20548;-59
2021/08/17 05:31:57;;;;;;;6.07;3.10;;;;;;;;;;1083087;54;20030;-59
2021/08/17 05:32:58;;;;;;;6.05;2.92;;;;;;;;;;1083252;54;20110;-58
2021/08/17 05:34:02;;;;;;;6.88;3.20;;;;;;;;;;1083439;54;20031;-59
2021/08/17 05:35:04;;;;;;;6.30;3.15;;;;;;;;;;1084176;31;20516;-58
2021/08/17 05:36:07;;;;;;;5.32;3.03;;;;;;;;;;1083493;54;20035;-58
2021/08/17 05:37:11;;;;;;;5.78;2.63;;;;;;;;;;1083459;54;20158;-59
2021/08/17 05:38:15;;;;;;;6.50;3.00;;;;;;;;;;1083404;54;20027;-59
2021/08/17 05:39:16;;;;;;;7.32;2.95;;;;;;;;;;1083419;54;20057;-59
2021/08/17 05:40:19;;;;;;;8.35;3.03;;;;;;;;;;1083401;54;20061;-58
2021/08/17 05:41:20;;;;;;;5.22;3.03;;;;;;;;;;1083431;54;20025;-59
2021/08/17 05:42:24;;;;;;;8.57;3.25;;;;;;;;;;1083413;54;20037;-59
2021/08/17 05:43:25;;;;;;;6.20;2.92;;;;;;;;;;1083436;54;20026;-58
2021/08/17 05:44:28;;;;;;;8.27;2.60;;;;;;;;;;1083429;54;20034;-58
2021/08/17 05:45:30;;;;;;;6.13;2.75;;;;;;;;;;1083383;47;20556;-58
2021/08/17 05:46:33;;;;;;;6.20;3.10;;;;;;;;;;1083419;54;20051;-58
2021/08/17 05:47:35;;;;;;;6.57;3.17;;;;;;;;;;1083461;47;20042;-59
2021/08/17 05:48:38;;;;;;;8.30;3.33;;;;;;;;;;1083345;54;20544;-58
2021/08/17 05:49:39;;;;;;;6.63;3.28;;;;;;;;;;1083455;47;20026;-58
2021/08/17 05:50:43;;;;;;;4.93;2.30;;;;;;;;;;1083374;54;20113;-59
2021/08/17 05:51:44;;;;;;;9.80;2.90;;;;;;;;;;1083413;54;20034;-58
2021/08/17 05:52:50;;;;;;;5.55;3.05;;;;;;;;;;1083409;54;20031;-59
2021/08/17 05:53:51;;;;;;;6.25;3.10;;;;;;;;;;1083470;54;20026;-59
2021/08/17 05:54:55;;;;;;;5.53;2.78;;;;;;;;;;1083422;54;20030;-59
2021/08/17 05:55:56;;;;;;;6.45;2.92;;;;;;;;;;1083361;54;20026;-58
2021/08/17 05:57:01;;;;;;;6.18;3.10;;;;;;;;;;1083863;39;20431;-59
2021/08/17 05:58:05;;;;;;;8.32;3.28;;;;;;;;;;1083397;54;20022;-59
2021/08/17 05:59:06;;;;;;;7.10;3.10;;;;;;;;;;1083407;54;20022;-59
2021/08/17 06:00:13;;;;;;;11.57;3.25;;;;;;;;;;1083368;54;20037;-59
2021/08/17 06:01:16;;;;;;;6.43;3.45;;;;;;;;;;1083418;54;20049;-59
2021/08/17 06:02:17;;;;;;;6.68;3.05;;;;;;;;;;1083396;54;20053;-58
2021/08/17 06:03:21;;;;;;;8.00;3.72;;;;;;;;;;1083391;54;20517;-58
2021/08/17 06:04:22;;;;;;;6.15;3.50;;;;;;;;;;1083375;54;20110;-59
2021/08/17 06:05:26;;;;;;;6.82;3.80;;;;;;;;;;1083400;54;20069;-59
2021/08/17 06:06:27;;;;;;;8.02;3.67;;;;;;;;;;1083378;54;20033;-59
2021/08/17 06:07:30;;;;;;;9.27;3.97;;;;;;;;;;1083422;54;20122;-59
2021/08/17 06:08:36;;;;;;;7.97;3.80;;;;;;;;;;1083318;54;20122;-59
2021/08/17 06:09:40;;;;;;;8.68;3.65;;;;;;;;;;1083526;54;20014;-57
2021/08/17 06:10:42;;;;;;;9.52;4.15;;;;;;;;;;1083784;39;20390;-58
2021/08/17 06:11:45;;;;;;;6.95;3.55;;;;;;;;;;1083387;54;20035;-56
2021/08/17 06:12:47;;;;;;;6.45;3.70;;;;;;;;;;1083859;39;20455;-57
2021/08/17 06:13:51;;;;;;;8.18;4.03;;;;;;;;;;1083403;54;20143;-58
2021/08/17 06:14:54;;;;;;;9.10;4.13;;;;;;;;;;1083378;54;20026;-57